createdAt,value
2019-02-24T00:00:53.634Z,1033.95
2019-02-24T00:01:53.653Z,1033.88
2019-02-24T00:02:54.563Z,1033.84
2019-02-24T00:03:54.719Z,1033.88
2019-02-24T00:05:24.292Z,1033.89
2019-02-24T00:06:24.277Z,1033.84
2019-02-24T00:07:54.947Z,1033.92
2019-02-24T00:08:54.927Z,1033.88
2019-02-24T00:10:25.663Z,1033.90
2019-02-24T00:11:25.649Z,1033.85
2019-02-24T00:12:56.376Z,1033.82
2019-02-24T00:13:56.298Z,1033.80
2019-02-24T00:15:27.091Z,1033.77
2019-02-24T00:16:27.067Z,1033.77
2019-02-24T00:17:57.157Z,1033.76
2019-02-24T00:18:57.134Z,1033.77
2019-02-24T00:20:27.829Z,1033.74
2019-02-24T00:21:27.812Z,1033.71
2019-02-24T00:22:58.493Z,1033.69
2019-02-24T00:23:58.483Z,1033.61
2019-02-24T00:25:29.212Z,1033.64
2019-02-24T00:26:29.174Z,1033.63
2019-02-24T00:28:06.916Z,1033.71
2019-02-24T00:29:00.853Z,1033.69
2019-02-24T00:30:30.561Z,1033.71
2019-02-24T00:31:30.567Z,1033.71
2019-02-24T00:33:01.243Z,1033.72
2019-02-24T00:34:01.223Z,1033.81
2019-02-24T00:35:31.914Z,1033.72
2019-02-24T00:36:31.891Z,1033.72
2019-02-24T00:38:02.633Z,1033.68
2019-02-24T00:39:02.615Z,1033.68
2019-02-24T00:40:33.377Z,1033.66
2019-02-24T00:41:33.380Z,1033.70
2019-02-24T00:43:04.013Z,1033.63
2019-02-24T00:44:03.994Z,1033.63
2019-02-24T00:45:34.734Z,1033.60
2019-02-24T00:46:34.709Z,1033.64
2019-02-24T00:48:05.370Z,1033.63
2019-02-24T00:49:05.364Z,1033.62
2019-02-24T00:50:05.385Z,1033.64
2019-02-24T00:51:05.381Z,1033.61
2019-02-24T00:52:36.029Z,1033.61
2019-02-24T00:53:36.010Z,1033.60
2019-02-24T00:55:06.738Z,1033.57
2019-02-24T00:56:06.725Z,1033.51
2019-02-24T00:57:37.473Z,1033.49
2019-02-24T00:58:37.475Z,1033.41
2019-02-24T01:00:08.149Z,1033.35
2019-02-24T01:01:08.109Z,1033.34
2019-02-24T01:02:38.849Z,1033.35
2019-02-24T01:03:38.835Z,1033.36
2019-02-24T01:05:09.511Z,1033.37
2019-02-24T01:06:09.486Z,1033.32
2019-02-24T01:07:40.233Z,1033.28
2019-02-24T01:08:40.209Z,1033.26
2019-02-24T01:10:10.900Z,1033.31
2019-02-24T01:11:10.886Z,1033.41
2019-02-24T01:12:41.576Z,1033.42
2019-02-24T01:13:41.562Z,1033.41
2019-02-24T01:15:12.246Z,1033.41
2019-02-24T01:16:12.217Z,1033.46
2019-02-24T01:17:42.895Z,1033.50
2019-02-24T01:18:42.862Z,1033.51
2019-02-24T01:20:13.582Z,1033.50
2019-02-24T01:21:13.563Z,1033.44
2019-02-24T01:22:44.241Z,1033.46
2019-02-24T01:23:44.214Z,1033.45
2019-02-24T01:25:14.936Z,1033.43
2019-02-24T01:26:14.930Z,1033.47
2019-02-24T01:27:14.907Z,1033.44
2019-02-24T01:28:14.895Z,1033.44
2019-02-24T01:29:14.886Z,1033.45
2019-02-24T01:30:14.880Z,1033.43
2019-02-24T01:31:14.864Z,1033.45
2019-02-24T01:32:14.859Z,1033.38
2019-02-24T01:33:14.851Z,1033.47
2019-02-24T01:34:14.825Z,1033.44
2019-02-24T01:35:14.839Z,1033.39
2019-02-24T01:36:14.822Z,1033.43
2019-02-24T01:37:14.814Z,1033.36
2019-02-24T01:38:14.796Z,1033.39
2019-02-24T01:39:14.779Z,1033.40
2019-02-24T01:40:14.771Z,1033.46
2019-02-24T01:41:14.758Z,1033.49
2019-02-24T01:42:14.758Z,1033.52
2019-02-24T01:43:14.759Z,1033.54
2019-02-24T01:44:14.728Z,1033.50
2019-02-24T01:45:14.740Z,1033.47
2019-02-24T01:46:14.705Z,1033.50
2019-02-24T01:47:14.689Z,1033.46
2019-02-24T01:48:14.682Z,1033.46
2019-02-24T01:49:14.675Z,1033.46
2019-02-24T01:50:14.663Z,1033.53
2019-02-24T01:51:14.639Z,1033.53
2019-02-24T01:52:14.649Z,1033.55
2019-02-24T01:53:14.629Z,1033.55
2019-02-24T01:54:15.277Z,1033.57
2019-02-24T01:55:14.613Z,1033.53
2019-02-24T01:56:45.313Z,1033.56
2019-02-24T01:57:45.272Z,1033.54
2019-02-24T01:59:15.988Z,1033.46
2019-02-24T02:00:15.951Z,1033.42
2019-02-24T02:01:46.639Z,1033.35
2019-02-24T02:02:46.631Z,1033.38
2019-02-24T02:04:17.332Z,1033.41
2019-02-24T02:05:17.310Z,1033.45
2019-02-24T02:06:17.297Z,1033.42
2019-02-24T02:07:17.289Z,1033.41
2019-02-24T02:08:17.300Z,1033.40
2019-02-24T02:09:17.265Z,1033.33
2019-02-24T02:10:17.250Z,1033.32
2019-02-24T02:11:17.245Z,1033.32
2019-02-24T02:12:17.232Z,1033.25
2019-02-24T02:13:17.232Z,1033.24
2019-02-24T02:14:17.213Z,1033.20
2019-02-24T02:15:17.202Z,1033.19
2019-02-24T02:16:17.190Z,1033.20
2019-02-24T02:17:17.179Z,1033.22
2019-02-24T02:18:17.166Z,1033.16
2019-02-24T02:19:17.156Z,1033.15
2019-02-24T02:20:17.142Z,1033.07
2019-02-24T02:21:17.160Z,1033.05
2019-02-24T02:22:17.124Z,1033.01
2019-02-24T02:23:17.122Z,1032.97
2019-02-24T02:24:17.106Z,1032.98
2019-02-24T02:25:17.099Z,1032.97
2019-02-24T02:26:17.085Z,1032.95
2019-02-24T02:27:17.083Z,1032.98
2019-02-24T02:28:17.066Z,1032.98
2019-02-24T02:29:17.052Z,1033.01
2019-02-24T02:30:17.046Z,1032.95
2019-02-24T02:31:17.075Z,1032.99
2019-02-24T02:32:17.018Z,1033.00
2019-02-24T02:33:17.016Z,1033.00
2019-02-24T02:34:16.996Z,1032.91
2019-02-24T02:35:16.989Z,1032.90
2019-02-24T02:36:16.971Z,1032.88
2019-02-24T02:37:16.978Z,1032.88
2019-02-24T02:38:16.963Z,1032.95
2019-02-24T02:39:16.950Z,1032.91
2019-02-24T02:40:16.937Z,1032.91
2019-02-24T02:41:16.924Z,1032.97
2019-02-24T02:42:16.919Z,1032.97
2019-02-24T02:43:16.905Z,1032.96
2019-02-24T02:44:16.902Z,1032.97
2019-02-24T02:45:16.895Z,1032.92
2019-02-24T02:46:16.874Z,1032.92
2019-02-24T02:47:16.861Z,1032.97
2019-02-24T02:48:16.861Z,1033.02
2019-02-24T02:49:16.837Z,1033.03
2019-02-24T02:50:16.832Z,1033.06
2019-02-24T02:51:16.818Z,1033.02
2019-02-24T02:52:16.804Z,1032.95
2019-02-24T02:53:16.800Z,1032.96
2019-02-24T02:54:16.797Z,1032.92
2019-02-24T02:55:16.788Z,1032.89
2019-02-24T02:56:16.770Z,1032.92
2019-02-24T02:57:16.758Z,1032.87
2019-02-24T02:58:16.750Z,1032.86
2019-02-24T02:59:16.746Z,1032.89
2019-02-24T03:00:16.723Z,1032.88
2019-02-24T03:01:16.711Z,1032.93
2019-02-24T03:02:24.169Z,1032.94
2019-02-24T03:03:17.700Z,1032.90
2019-02-24T03:04:16.688Z,1032.94
2019-02-24T03:05:16.674Z,1032.99
2019-02-24T03:06:16.661Z,1033.00
2019-02-24T03:07:16.658Z,1032.96
2019-02-24T03:08:16.640Z,1032.95
2019-02-24T03:09:16.640Z,1032.98
2019-02-24T03:10:16.619Z,1032.94
2019-02-24T03:11:16.622Z,1032.97
2019-02-24T03:12:16.600Z,1032.94
2019-02-24T03:13:16.594Z,1032.93
2019-02-24T03:14:47.678Z,1032.92
2019-02-24T03:15:47.245Z,1032.92
2019-02-24T03:17:17.991Z,1032.91
2019-02-24T03:18:17.949Z,1032.92
2019-02-24T03:19:48.624Z,1032.94
2019-02-24T03:20:48.611Z,1032.90
2019-02-24T03:22:19.321Z,1032.93
2019-02-24T03:23:19.300Z,1032.94
2019-02-24T03:24:50.010Z,1032.86
2019-02-24T03:25:49.976Z,1032.91
2019-02-24T03:27:20.708Z,1032.92
2019-02-24T03:28:20.678Z,1032.88
2019-02-24T03:29:51.362Z,1032.92
2019-02-24T03:30:51.347Z,1032.93
2019-02-24T03:32:22.066Z,1032.94
2019-02-24T03:33:22.048Z,1032.98
2019-02-24T03:34:52.729Z,1032.95
2019-02-24T03:35:52.709Z,1032.93
2019-02-24T03:37:24.380Z,1032.93
2019-02-24T03:38:24.369Z,1032.94
2019-02-24T03:39:55.032Z,1032.87
2019-02-24T03:40:55.022Z,1032.87
2019-02-24T03:42:25.716Z,1032.82
2019-02-24T03:43:25.674Z,1032.81
2019-02-24T03:44:56.360Z,1032.83
2019-02-24T03:45:56.352Z,1032.78
2019-02-24T03:47:27.043Z,1032.77
2019-02-24T03:48:27.023Z,1032.75
2019-02-24T03:49:57.708Z,1032.73
2019-02-24T03:50:57.698Z,1032.73
2019-02-24T03:52:28.435Z,1032.76
2019-02-24T03:53:28.410Z,1032.73
2019-02-24T03:54:28.404Z,1032.77
2019-02-24T03:55:28.385Z,1032.82
2019-02-24T03:56:28.384Z,1032.84
2019-02-24T03:57:28.364Z,1032.84
2019-02-24T03:58:28.369Z,1032.85
2019-02-24T03:59:28.348Z,1032.78
2019-02-24T04:00:28.349Z,1032.76
2019-02-24T04:01:28.324Z,1032.78
2019-02-24T04:02:28.317Z,1032.76
2019-02-24T04:03:28.302Z,1032.76
2019-02-24T04:04:28.292Z,1032.76
2019-02-24T04:05:28.295Z,1032.85
2019-02-24T04:06:28.281Z,1032.84
2019-02-24T04:07:28.279Z,1032.81
2019-02-24T04:08:28.251Z,1032.80
2019-02-24T04:09:28.249Z,1032.77
2019-02-24T04:10:28.239Z,1032.73
2019-02-24T04:11:28.234Z,1032.68
2019-02-24T04:12:28.221Z,1032.65
2019-02-24T04:13:28.200Z,1032.57
2019-02-24T04:14:28.192Z,1032.46
2019-02-24T04:15:28.182Z,1032.39
2019-02-24T04:16:28.167Z,1032.39
2019-02-24T04:17:28.164Z,1032.40
2019-02-24T04:18:28.145Z,1032.33
2019-02-24T04:19:28.132Z,1032.36
2019-02-24T04:20:28.123Z,1032.31
2019-02-24T04:21:28.141Z,1032.32
2019-02-24T04:22:28.106Z,1032.26
2019-02-24T04:23:28.094Z,1032.25
2019-02-24T04:24:28.084Z,1032.19
2019-02-24T04:25:28.116Z,1032.21
2019-02-24T04:26:28.063Z,1032.22
2019-02-24T04:27:28.058Z,1032.21
2019-02-24T04:28:28.048Z,1032.21
2019-02-24T04:29:28.042Z,1032.25
2019-02-24T04:30:28.018Z,1032.24
2019-02-24T04:31:28.032Z,1032.21
2019-02-24T04:32:28.008Z,1032.23
2019-02-24T04:33:27.990Z,1032.21
2019-02-24T04:34:28.011Z,1032.21
2019-02-24T04:35:27.976Z,1032.19
2019-02-24T04:36:27.962Z,1032.16
2019-02-24T04:37:27.950Z,1032.16
2019-02-24T04:38:27.938Z,1032.14
2019-02-24T04:39:27.933Z,1032.10
2019-02-24T04:40:27.928Z,1032.10
2019-02-24T04:41:27.909Z,1032.07
2019-02-24T04:42:27.895Z,1032.14
2019-02-24T04:43:27.887Z,1032.10
2019-02-24T04:44:27.882Z,1032.14
2019-02-24T04:45:27.869Z,1032.17
2019-02-24T04:46:27.865Z,1032.20
2019-02-24T04:47:27.870Z,1032.23
2019-02-24T04:48:27.834Z,1032.18
2019-02-24T04:49:58.535Z,1032.19
2019-02-24T04:50:58.518Z,1032.23
2019-02-24T04:52:29.184Z,1032.19
2019-02-24T04:53:29.155Z,1032.22
2019-02-24T04:54:59.870Z,1032.18
2019-02-24T04:55:59.856Z,1032.15
2019-02-24T04:56:59.843Z,1032.16
2019-02-24T04:57:59.828Z,1032.10
2019-02-24T04:58:59.837Z,1032.12
2019-02-24T04:59:59.810Z,1032.08
2019-02-24T05:00:59.810Z,1032.01
2019-02-24T05:01:59.789Z,1032.07
2019-02-24T05:02:59.778Z,1032.10
2019-02-24T05:03:59.778Z,1032.15
2019-02-24T05:04:59.758Z,1032.15
2019-02-24T05:05:59.744Z,1032.12
2019-02-24T05:06:59.744Z,1032.07
2019-02-24T05:07:59.720Z,1032.09
2019-02-24T05:08:59.713Z,1032.11
2019-02-24T05:10:01.214Z,1032.08
2019-02-24T05:10:59.701Z,1032.11
2019-02-24T05:11:59.695Z,1032.10
2019-02-24T05:12:59.670Z,1032.18
2019-02-24T05:13:59.659Z,1032.29
2019-02-24T05:14:59.657Z,1032.29
2019-02-24T05:15:59.648Z,1032.35
2019-02-24T05:16:59.642Z,1032.35
2019-02-24T05:17:59.621Z,1032.31
2019-02-24T05:18:59.615Z,1032.33
2019-02-24T05:19:59.595Z,1032.31
2019-02-24T05:20:59.595Z,1032.33
2019-02-24T05:21:59.584Z,1032.36
2019-02-24T05:22:59.571Z,1032.35
2019-02-24T05:23:59.563Z,1032.38
2019-02-24T05:24:59.544Z,1032.38
2019-02-24T05:25:59.528Z,1032.33
2019-02-24T05:26:59.537Z,1032.38
2019-02-24T05:27:59.516Z,1032.39
2019-02-24T05:28:59.507Z,1032.41
2019-02-24T05:29:59.505Z,1032.37
2019-02-24T05:30:59.484Z,1032.39
2019-02-24T05:31:59.473Z,1032.41
2019-02-24T05:32:59.465Z,1032.34
2019-02-24T05:33:59.453Z,1032.40
2019-02-24T05:34:59.441Z,1032.35
2019-02-24T05:35:59.430Z,1032.37
2019-02-24T05:36:59.418Z,1032.38
2019-02-24T05:37:59.409Z,1032.41
2019-02-24T05:38:59.408Z,1032.43
2019-02-24T05:39:59.394Z,1032.43
2019-02-24T05:40:59.381Z,1032.40
2019-02-24T05:41:59.363Z,1032.42
2019-02-24T05:42:59.352Z,1032.47
2019-02-24T05:43:59.354Z,1032.47
2019-02-24T05:44:59.334Z,1032.45
2019-02-24T05:45:59.325Z,1032.52
2019-02-24T05:46:59.319Z,1032.53
2019-02-24T05:47:59.299Z,1032.50
2019-02-24T05:48:59.290Z,1032.48
2019-02-24T05:49:59.338Z,1032.54
2019-02-24T05:50:59.265Z,1032.50
2019-02-24T05:51:59.266Z,1032.53
2019-02-24T05:52:59.247Z,1032.52
2019-02-24T05:53:59.243Z,1032.51
2019-02-24T05:54:59.229Z,1032.49
2019-02-24T05:55:59.221Z,1032.52
2019-02-24T05:56:59.202Z,1032.48
2019-02-24T05:57:59.198Z,1032.52
2019-02-24T05:58:59.186Z,1032.49
2019-02-24T05:59:59.182Z,1032.42
2019-02-24T06:00:59.165Z,1032.38
2019-02-24T06:01:59.163Z,1032.37
2019-02-24T06:02:59.167Z,1032.39
2019-02-24T06:03:59.133Z,1032.36
2019-02-24T06:04:59.124Z,1032.34
2019-02-24T06:05:59.115Z,1032.31
2019-02-24T06:06:59.101Z,1032.32
2019-02-24T06:07:59.092Z,1032.40
2019-02-24T06:08:59.083Z,1032.43
2019-02-24T06:09:59.086Z,1032.51
2019-02-24T06:10:59.064Z,1032.48
2019-02-24T06:11:59.049Z,1032.50
2019-02-24T06:12:59.055Z,1032.51
2019-02-24T06:13:59.024Z,1032.49
2019-02-24T06:14:59.013Z,1032.48
2019-02-24T06:15:59.006Z,1032.47
2019-02-24T06:16:58.994Z,1032.51
2019-02-24T06:17:58.990Z,1032.53
2019-02-24T06:18:58.974Z,1032.52
2019-02-24T06:19:58.966Z,1032.43
2019-02-24T06:20:58.952Z,1032.45
2019-02-24T06:21:58.952Z,1032.45
2019-02-24T06:22:58.936Z,1032.39
2019-02-24T06:23:58.927Z,1032.45
2019-02-24T06:24:58.917Z,1032.39
2019-02-24T06:25:58.913Z,1032.42
2019-02-24T06:26:58.901Z,1032.41
2019-02-24T06:27:58.879Z,1032.45
2019-02-24T06:28:58.873Z,1032.44
2019-02-24T06:30:04.886Z,1032.42
2019-02-24T06:30:59.860Z,1032.40
2019-02-24T06:31:58.844Z,1032.36
2019-02-24T06:32:58.820Z,1032.37
2019-02-24T06:33:58.808Z,1032.42
2019-02-24T06:34:58.809Z,1032.36
2019-02-24T06:35:58.818Z,1032.34
2019-02-24T06:36:58.791Z,1032.32
2019-02-24T06:37:58.785Z,1032.25
2019-02-24T06:38:58.761Z,1032.29
2019-02-24T06:39:58.759Z,1032.28
2019-02-24T06:40:59.906Z,1032.29
2019-02-24T06:41:58.732Z,1032.28
2019-02-24T06:42:58.720Z,1032.29
2019-02-24T06:43:58.722Z,1032.28
2019-02-24T06:44:58.700Z,1032.34
2019-02-24T06:45:58.698Z,1032.35
2019-02-24T06:46:58.673Z,1032.32
2019-02-24T06:47:58.683Z,1032.31
2019-02-24T06:48:58.667Z,1032.29
2019-02-24T06:49:58.659Z,1032.30
2019-02-24T06:50:58.637Z,1032.27
2019-02-24T06:51:58.622Z,1032.28
2019-02-24T06:52:58.615Z,1032.25
2019-02-24T06:54:00.238Z,1032.28
2019-02-24T06:54:58.604Z,1032.29
2019-02-24T06:55:58.591Z,1032.29
2019-02-24T06:56:58.574Z,1032.29
2019-02-24T06:57:58.563Z,1032.34
2019-02-24T06:58:58.554Z,1032.39
2019-02-24T06:59:58.534Z,1032.41
2019-02-24T07:00:58.544Z,1032.44
2019-02-24T07:01:58.518Z,1032.45
2019-02-24T07:02:58.513Z,1032.49
2019-02-24T07:03:58.504Z,1032.51
2019-02-24T07:04:58.489Z,1032.52
2019-02-24T07:05:58.485Z,1032.51
2019-02-24T07:06:58.470Z,1032.50
2019-02-24T07:07:58.545Z,1032.53
2019-02-24T07:08:58.446Z,1032.51
2019-02-24T07:09:58.436Z,1032.56
2019-02-24T07:10:58.439Z,1032.57
2019-02-24T07:11:58.434Z,1032.64
2019-02-24T07:12:58.408Z,1032.53
2019-02-24T07:13:58.396Z,1032.60
2019-02-24T07:14:58.384Z,1032.62
2019-02-24T07:15:58.376Z,1032.63
2019-02-24T07:16:58.396Z,1032.61
2019-02-24T07:17:58.363Z,1032.67
2019-02-24T07:18:58.351Z,1032.67
2019-02-24T07:19:58.337Z,1032.65
2019-02-24T07:20:58.321Z,1032.63
2019-02-24T07:21:58.386Z,1032.63
2019-02-24T07:22:58.299Z,1032.62
2019-02-24T07:23:58.286Z,1032.64
2019-02-24T07:24:58.281Z,1032.61
2019-02-24T07:25:58.260Z,1032.59
2019-02-24T07:26:58.252Z,1032.58
2019-02-24T07:27:58.257Z,1032.62
2019-02-24T07:28:58.233Z,1032.67
2019-02-24T07:29:58.225Z,1032.62
2019-02-24T07:30:58.233Z,1032.53
2019-02-24T07:31:58.207Z,1032.52
2019-02-24T07:32:58.189Z,1032.52
2019-02-24T07:33:58.187Z,1032.54
2019-02-24T07:34:58.197Z,1032.51
2019-02-24T07:35:58.222Z,1032.52
2019-02-24T07:36:58.148Z,1032.48
2019-02-24T07:37:58.146Z,1032.55
2019-02-24T07:38:58.125Z,1032.50
2019-02-24T07:39:58.117Z,1032.51
2019-02-24T07:40:58.117Z,1032.46
2019-02-24T07:41:58.091Z,1032.41
2019-02-24T07:42:58.084Z,1032.42
2019-02-24T07:43:58.074Z,1032.39
2019-02-24T07:44:58.066Z,1032.39
2019-02-24T07:45:58.057Z,1032.35
2019-02-24T07:46:58.041Z,1032.36
2019-02-24T07:47:58.053Z,1032.39
2019-02-24T07:48:59.718Z,1032.38
2019-02-24T07:49:58.152Z,1032.39
2019-02-24T07:50:58.010Z,1032.35
2019-02-24T07:51:57.992Z,1032.35
2019-02-24T07:52:57.986Z,1032.35
2019-02-24T07:53:57.973Z,1032.37
2019-02-24T07:54:57.967Z,1032.35
2019-02-24T07:55:57.946Z,1032.25
2019-02-24T07:56:57.949Z,1032.25
2019-02-24T07:57:57.938Z,1032.30
2019-02-24T07:58:57.927Z,1032.30
2019-02-24T07:59:57.950Z,1032.31
2019-02-24T08:00:57.892Z,1032.33
2019-02-24T08:01:57.885Z,1032.33
2019-02-24T08:02:57.881Z,1032.41
2019-02-24T08:03:57.878Z,1032.42
2019-02-24T08:04:57.856Z,1032.42
2019-02-24T08:05:57.847Z,1032.44
2019-02-24T08:06:57.828Z,1032.43
2019-02-24T08:07:57.826Z,1032.43
2019-02-24T08:08:57.813Z,1032.42
2019-02-24T08:09:57.804Z,1032.46
2019-02-24T08:10:57.796Z,1032.43
2019-02-24T08:11:57.779Z,1032.54
2019-02-24T08:12:59.719Z,1032.48
2019-02-24T08:13:57.756Z,1032.51
2019-02-24T08:14:57.751Z,1032.50
2019-02-24T08:15:57.740Z,1032.51
2019-02-24T08:16:57.729Z,1032.52
2019-02-24T08:17:57.718Z,1032.51
2019-02-24T08:18:57.703Z,1032.53
2019-02-24T08:19:57.708Z,1032.50
2019-02-24T08:20:57.704Z,1032.47
2019-02-24T08:21:57.686Z,1032.48
2019-02-24T08:22:57.666Z,1032.45
2019-02-24T08:23:57.652Z,1032.46
2019-02-24T08:24:57.647Z,1032.50
2019-02-24T08:25:57.634Z,1032.46
2019-02-24T08:26:57.627Z,1032.50
2019-02-24T08:27:59.218Z,1032.47
2019-02-24T08:28:59.224Z,1032.48
2019-02-24T08:29:57.583Z,1032.49
2019-02-24T08:30:59.232Z,1032.46
2019-02-24T08:31:57.898Z,1032.47
2019-02-24T08:32:57.578Z,1032.42
2019-02-24T08:33:59.264Z,1032.37
2019-02-24T08:35:01.483Z,1032.37
2019-02-24T08:36:01.241Z,1032.32
2019-02-24T08:36:59.349Z,1032.34
2019-02-24T08:37:57.586Z,1032.33
2019-02-24T08:38:59.276Z,1032.35
2019-02-24T08:39:59.277Z,1032.39
2019-02-24T08:40:59.227Z,1032.36
2019-02-24T08:41:57.578Z,1032.36
2019-02-24T08:42:57.813Z,1032.45
2019-02-24T08:43:57.514Z,1032.33
2019-02-24T08:44:57.443Z,1032.42
2019-02-24T08:45:59.255Z,1032.36
2019-02-24T08:46:57.490Z,1032.37
2019-02-24T08:47:57.408Z,1032.40
2019-02-24T08:48:57.395Z,1032.39
2019-02-24T08:49:57.396Z,1032.67
2019-02-24T08:50:57.364Z,1032.44
2019-02-24T08:51:57.353Z,1032.48
2019-02-24T08:52:57.358Z,1032.42
2019-02-24T08:53:57.389Z,1032.82
2019-02-24T08:54:57.323Z,1032.51
2019-02-24T08:55:57.317Z,1032.62
2019-02-24T08:56:57.302Z,1032.40
2019-02-24T08:57:57.287Z,1032.36
2019-02-24T08:58:57.275Z,1032.56
2019-02-24T08:59:57.274Z,1032.91
2019-02-24T09:00:57.258Z,1032.75
2019-02-24T09:01:57.240Z,1032.46
2019-02-24T09:02:57.228Z,1032.86
2019-02-24T09:03:57.225Z,1032.87
2019-02-24T09:04:57.204Z,1032.91
2019-02-24T09:05:57.215Z,1032.95
2019-02-24T09:06:57.197Z,1032.94
2019-02-24T09:07:57.173Z,1032.95
2019-02-24T09:08:57.191Z,1032.89
2019-02-24T09:09:57.160Z,1032.83
2019-02-24T09:10:57.146Z,1032.78
2019-02-24T09:11:57.132Z,1032.77
2019-02-24T09:12:57.120Z,1032.77
2019-02-24T09:13:57.106Z,1032.79
2019-02-24T09:14:57.097Z,1032.87
2019-02-24T09:15:57.091Z,1033.00
2019-02-24T09:16:57.076Z,1033.02
2019-02-24T09:17:57.086Z,1032.98
2019-02-24T09:18:57.062Z,1032.93
2019-02-24T09:19:57.052Z,1032.88
2019-02-24T09:20:57.035Z,1032.91
2019-02-24T09:21:57.038Z,1032.94
2019-02-24T09:22:57.015Z,1032.90
2019-02-24T09:23:57.339Z,1033.01
2019-02-24T09:24:56.998Z,1033.05
2019-02-24T09:25:56.980Z,1033.13
2019-02-24T09:26:56.973Z,1033.10
2019-02-24T09:27:56.955Z,1033.13
2019-02-24T09:28:56.948Z,1033.05
2019-02-24T09:29:56.939Z,1033.03
2019-02-24T09:31:00.816Z,1033.04
2019-02-24T09:31:56.921Z,1033.00
2019-02-24T09:32:56.936Z,1033.10
2019-02-24T09:33:56.900Z,1033.29
2019-02-24T09:34:56.890Z,1033.31
2019-02-24T09:35:56.877Z,1033.37
2019-02-24T09:36:56.869Z,1033.24
2019-02-24T09:37:56.866Z,1033.10
2019-02-24T09:38:56.852Z,1033.19
2019-02-24T09:39:56.841Z,1033.33
2019-02-24T09:40:56.834Z,1033.47
2019-02-24T09:41:56.824Z,1033.48
2019-02-24T09:42:56.814Z,1033.49
2019-02-24T09:43:56.798Z,1033.49
2019-02-24T09:44:56.892Z,1033.54
2019-02-24T09:45:56.779Z,1033.39
2019-02-24T09:46:56.770Z,1033.32
2019-02-24T09:47:56.758Z,1033.31
2019-02-24T09:48:56.748Z,1033.28
2019-02-24T09:49:56.737Z,1033.19
2019-02-24T09:50:56.761Z,1033.25
2019-02-24T09:51:56.734Z,1033.25
2019-02-24T09:52:56.724Z,1033.35
2019-02-24T09:53:56.714Z,1033.35
2019-02-24T09:54:56.695Z,1033.33
2019-02-24T09:55:56.700Z,1033.29
2019-02-24T09:56:56.660Z,1033.16
2019-02-24T09:57:56.662Z,1033.14
2019-02-24T09:58:56.657Z,1033.24
2019-02-24T09:59:56.636Z,1033.25
2019-02-24T10:00:56.621Z,1033.27
2019-02-24T10:01:56.618Z,1033.20
2019-02-24T10:02:57.663Z,1033.19
2019-02-24T10:03:56.600Z,1033.07
2019-02-24T10:04:56.592Z,1032.99
2019-02-24T10:05:56.573Z,1033.04
2019-02-24T10:06:56.619Z,1032.97
2019-02-24T10:07:56.553Z,1032.99
2019-02-24T10:08:56.541Z,1033.14
2019-02-24T10:09:56.529Z,1033.19
2019-02-24T10:10:56.536Z,1033.10
2019-02-24T10:11:56.512Z,1033.04
2019-02-24T10:12:56.496Z,1033.09
2019-02-24T10:13:56.493Z,1033.15
2019-02-24T10:14:56.475Z,1033.17
2019-02-24T10:15:56.523Z,1033.08
2019-02-24T10:16:56.507Z,1033.00
2019-02-24T10:17:56.452Z,1032.96
2019-02-24T10:18:56.457Z,1033.04
2019-02-24T10:19:56.430Z,1033.13
2019-02-24T10:20:56.416Z,1033.15
2019-02-24T10:21:56.457Z,1033.14
2019-02-24T10:22:56.402Z,1033.15
2019-02-24T10:23:56.393Z,1033.15
2019-02-24T10:24:56.380Z,1033.14
2019-02-24T10:25:56.365Z,1033.13
2019-02-24T10:26:56.360Z,1033.13
2019-02-24T10:27:56.350Z,1033.12
2019-02-24T10:28:56.539Z,1033.12
2019-02-24T10:29:56.324Z,1033.14
2019-02-24T10:30:56.404Z,1033.12
2019-02-24T10:31:56.315Z,1033.10
2019-02-24T10:32:56.306Z,1033.17
2019-02-24T10:33:56.306Z,1033.18
2019-02-24T10:34:56.280Z,1033.16
2019-02-24T10:35:56.269Z,1033.22
2019-02-24T10:36:56.260Z,1033.22
2019-02-24T10:37:56.254Z,1033.23
2019-02-24T10:38:56.242Z,1033.28
2019-02-24T10:39:56.235Z,1033.25
2019-02-24T10:40:56.215Z,1033.27
2019-02-24T10:41:56.227Z,1033.23
2019-02-24T10:42:56.192Z,1033.17
2019-02-24T10:43:56.194Z,1033.02
2019-02-24T10:44:56.735Z,1032.84
2019-02-24T10:45:56.163Z,1032.65
2019-02-24T10:46:56.146Z,1032.61
2019-02-24T10:47:56.220Z,1032.63
2019-02-24T10:49:03.113Z,1032.59
2019-02-24T10:49:57.148Z,1032.58
2019-02-24T10:50:56.117Z,1032.59
2019-02-24T10:51:56.101Z,1032.59
2019-02-24T10:52:56.084Z,1032.56
2019-02-24T10:53:56.128Z,1032.59
2019-02-24T10:54:56.070Z,1032.60
2019-02-24T10:55:56.052Z,1032.57
2019-02-24T10:56:56.043Z,1032.57
2019-02-24T10:57:56.031Z,1032.60
2019-02-24T10:58:56.022Z,1032.60
2019-02-24T10:59:56.021Z,1032.57
2019-02-24T11:00:56.000Z,1032.63
2019-02-24T11:01:56.000Z,1032.69
2019-02-24T11:02:55.983Z,1032.78
2019-02-24T11:03:55.970Z,1032.82
2019-02-24T11:04:55.974Z,1032.80
2019-02-24T11:05:55.952Z,1032.69
2019-02-24T11:06:55.937Z,1032.67
2019-02-24T11:07:55.932Z,1032.62
2019-02-24T11:08:55.947Z,1032.60
2019-02-24T11:09:55.977Z,1032.71
2019-02-24T11:10:55.894Z,1032.72
2019-02-24T11:11:55.887Z,1032.68
2019-02-24T11:12:55.882Z,1032.64
2019-02-24T11:13:55.873Z,1032.66
2019-02-24T11:14:55.882Z,1032.68
2019-02-24T11:15:55.858Z,1032.77
2019-02-24T11:16:55.910Z,1032.77
2019-02-24T11:17:55.881Z,1032.68
2019-02-24T11:18:55.850Z,1032.57
2019-02-24T11:19:55.838Z,1032.58
2019-02-24T11:20:55.879Z,1032.59
2019-02-24T11:21:55.773Z,1032.56
2019-02-24T11:22:55.768Z,1032.58
2019-02-24T11:23:55.756Z,1032.57
2019-02-24T11:24:56.438Z,1032.48
2019-02-24T11:25:56.653Z,1032.41
2019-02-24T11:26:55.781Z,1032.40
2019-02-24T11:27:55.716Z,1032.43
2019-02-24T11:28:55.710Z,1032.39
2019-02-24T11:29:55.689Z,1032.36
2019-02-24T11:30:55.689Z,1032.34
2019-02-24T11:31:55.673Z,1032.40
2019-02-24T11:32:55.652Z,1032.43
2019-02-24T11:33:55.844Z,1032.44
2019-02-24T11:34:55.641Z,1032.49
2019-02-24T11:35:55.632Z,1032.45
2019-02-24T11:36:55.772Z,1032.47
2019-02-24T11:37:55.604Z,1032.46
2019-02-24T11:38:55.621Z,1032.46
2019-02-24T11:39:55.779Z,1032.47
2019-02-24T11:40:55.590Z,1032.47
2019-02-24T11:41:55.566Z,1032.46
2019-02-24T11:42:55.542Z,1032.46
2019-02-24T11:43:55.538Z,1032.41
2019-02-24T11:44:55.523Z,1032.50
2019-02-24T11:45:55.511Z,1032.50
2019-02-24T11:46:55.510Z,1032.45
2019-02-24T11:47:55.525Z,1032.45
2019-02-24T11:48:55.485Z,1032.46
2019-02-24T11:49:55.519Z,1032.50
2019-02-24T11:50:55.461Z,1032.50
2019-02-24T11:52:03.666Z,1032.48
2019-02-24T11:52:56.444Z,1032.49
2019-02-24T11:53:55.422Z,1032.49
2019-02-24T11:54:55.414Z,1032.46
2019-02-24T11:55:55.415Z,1032.48
2019-02-24T11:56:55.410Z,1032.52
2019-02-24T11:57:55.386Z,1032.53
2019-02-24T11:58:55.381Z,1032.49
2019-02-24T11:59:55.360Z,1032.46
2019-02-24T12:00:55.364Z,1032.45
2019-02-24T12:01:55.338Z,1032.50
2019-02-24T12:02:55.332Z,1032.50
2019-02-24T12:03:55.354Z,1032.50
2019-02-24T12:04:55.315Z,1032.46
2019-02-24T12:05:55.299Z,1032.42
2019-02-24T12:06:55.317Z,1032.39
2019-02-24T12:07:55.275Z,1032.34
2019-02-24T12:08:55.263Z,1032.28
2019-02-24T12:09:55.266Z,1032.34
2019-02-24T12:10:55.897Z,1032.32
2019-02-24T12:11:55.357Z,1032.29
2019-02-24T12:12:55.219Z,1032.32
2019-02-24T12:13:55.228Z,1032.33
2019-02-24T12:14:55.470Z,1032.31
2019-02-24T12:15:55.218Z,1032.30
2019-02-24T12:16:55.885Z,1032.33
2019-02-24T12:17:55.262Z,1032.31
2019-02-24T12:18:55.157Z,1032.31
2019-02-24T12:19:55.153Z,1032.31
2019-02-24T12:20:55.138Z,1032.30
2019-02-24T12:21:55.151Z,1032.35
2019-02-24T12:22:55.117Z,1032.34
2019-02-24T12:23:56.814Z,1032.40
2019-02-24T12:24:55.115Z,1032.36
2019-02-24T12:25:55.113Z,1032.35
2019-02-24T12:26:55.083Z,1032.34
2019-02-24T12:27:55.057Z,1032.37
2019-02-24T12:28:55.039Z,1032.30
2019-02-24T12:29:55.036Z,1032.31
2019-02-24T12:30:55.021Z,1032.30
2019-02-24T12:31:56.749Z,1032.30
2019-02-24T12:32:55.015Z,1032.30
2019-02-24T12:33:56.809Z,1032.30